sensor_id;sensor_type;location;lat;lon;timestamp;pressure;altitude;pressure_sealevel;temperature;humidity
10518;BME280;5307;42.548;22.968;2024-03-06T00:01:53;93587.16;;;3.44;100.00
10518;BME280;5307;42.548;22.968;2024-03-06T00:04:21;93595.25;;;3.44;100.00
10518;BME280;5307;42.548;22.968;2024-03-06T00:06:48;93584.97;;;3.36;100.00
10518;BME280;5307;42.548;22.968;2024-03-06T00:09:17;93592.63;;;3.41;100.00
10518;BME280;5307;42.548;22.968;2024-03-06T00:11:45;93594.28;;;3.31;100.00
10518;BME280;5307;42.548;22.968;2024-03-06T00:14:11;93584.03;;;3.19;100.00
10518;BME280;5307;42.548;22.968;2024-03-06T00:16:38;93583.81;;;3.10;100.00
10518;BME280;5307;42.548;22.968;2024-03-06T00:19:05;93589.75;;;3.24;100.00
10518;BME280;5307;42.548;22.968;2024-03-06T00:21:33;93582.63;;;3.38;100.00
10518;BME280;5307;42.548;22.968;2024-03-06T00:24:01;93594.41;;;3.24;100.00
10518;BME280;5307;42.548;22.968;2024-03-06T00:26:29;93593.41;;;3.38;100.00
10518;BME280;5307;42.548;22.968;2024-03-06T00:28:55;93589.72;;;3.28;100.00
10518;BME280;5307;42.548;22.968;2024-03-06T00:31:22;93594.34;;;3.27;100.00
10518;BME280;5307;42.548;22.968;2024-03-06T00:33:49;93595.66;;;3.16;100.00
10518;BME280;5307;42.548;22.968;2024-03-06T00:36:16;93583.81;;;3.06;100.00
10518;BME280;5307;42.548;22.968;2024-03-06T00:38:44;93586.75;;;3.19;100.00
10518;BME280;5307;42.548;22.968;2024-03-06T00:41:10;93587.38;;;3.30;100.00
10518;BME280;5307;42.548;22.968;2024-03-06T00:43:37;93582.63;;;3.38;100.00
10518;BME280;5307;42.548;22.968;2024-03-06T00:46:04;93596.63;;;3.29;100.00
10518;BME280;5307;42.548;22.968;2024-03-06T00:48:31;93593.94;;;3.29;100.00
10518;BME280;5307;42.548;22.968;2024-03-06T00:50:58;93590.63;;;3.18;100.00
10518;BME280;5307;42.548;22.968;2024-03-06T00:53:25;93594.16;;;2.81;100.00
10518;BME280;5307;42.548;22.968;2024-03-06T00:55:53;93589.97;;;3.07;100.00
10518;BME280;5307;42.548;22.968;2024-03-06T00:58:20;93584.94;;;3.09;100.00
10518;BME280;5307;42.548;22.968;2024-03-06T01:00:46;93598.84;;;3.07;100.00
10518;BME280;5307;42.548;22.968;2024-03-06T01:03:13;93595.72;;;3.09;100.00
10518;BME280;5307;42.548;22.968;2024-03-06T01:05:40;93587.81;;;2.98;100.00
10518;BME280;5307;42.548;22.968;2024-03-06T01:08:07;93590.69;;;2.80;100.00
10518;BME280;5307;42.548;22.968;2024-03-06T01:10:33;93592.50;;;2.90;100.00
10518;BME280;5307;42.548;22.968;2024-03-06T01:13:02;93598.78;;;2.80;100.00
10518;BME280;5307;42.548;22.968;2024-03-06T01:15:29;93608.41;;;2.81;100.00
10518;BME280;5307;42.548;22.968;2024-03-06T01:17:56;93602.06;;;2.64;100.00
10518;BME280;5307;42.548;22.968;2024-03-06T01:20:23;93599.06;;;2.89;100.00
10518;BME280;5307;42.548;22.968;2024-03-06T01:22:50;93597.78;;;2.67;100.00
10518;BME280;5307;42.548;22.968;2024-03-06T01:25:17;93607.25;;;2.82;100.00
10518;BME280;5307;42.548;22.968;2024-03-06T01:27:43;93602.59;;;2.86;100.00
10518;BME280;5307;42.548;22.968;2024-03-06T01:30:12;93609.78;;;2.62;100.00
10518;BME280;5307;42.548;22.968;2024-03-06T01:32:39;93608.03;;;2.79;100.00
10518;BME280;5307;42.548;22.968;2024-03-06T01:35:06;93609.56;;;2.84;100.00
10518;BME280;5307;42.548;22.968;2024-03-06T01:37:34;93604.91;;;2.84;100.00
10518;BME280;5307;42.548;22.968;2024-03-06T01:40:01;93613.28;;;2.59;100.00
10518;BME280;5307;42.548;22.968;2024-03-06T01:42:29;93607.59;;;2.54;100.00
10518;BME280;5307;42.548;22.968;2024-03-06T01:44:56;93606.94;;;2.43;100.00
10518;BME280;5307;42.548;22.968;2024-03-06T01:47:24;93609.25;;;2.41;100.00
10518;BME280;5307;42.548;22.968;2024-03-06T01:49:51;93606.31;;;2.24;100.00
10518;BME280;5307;42.548;22.968;2024-03-06T01:52:18;93614.72;;;2.33;100.00
10518;BME280;5307;42.548;22.968;2024-03-06T01:54:48;93612.59;;;2.52;100.00
10518;BME280;5307;42.548;22.968;2024-03-06T01:57:17;93613.13;;;2.36;100.00
10518;BME280;5307;42.548;22.968;2024-03-06T01:59:45;93618.28;;;2.61;100.00
10518;BME280;5307;42.548;22.968;2024-03-06T02:02:11;93616.81;;;2.53;100.00
10518;BME280;5307;42.548;22.968;2024-03-06T02:04:40;93610.66;;;2.52;100.00
10518;BME280;5307;42.548;22.968;2024-03-06T02:07:08;93623.50;;;2.37;100.00
10518;BME280;5307;42.548;22.968;2024-03-06T02:09:37;93629.72;;;2.34;100.00
10518;BME280;5307;42.548;22.968;2024-03-06T02:12:05;93627.75;;;2.38;100.00
10518;BME280;5307;42.548;22.968;2024-03-06T02:14:40;93625.13;;;2.31;100.00
10518;BME280;5307;42.548;22.968;2024-03-06T02:17:07;93616.03;;;2.52;100.00
10518;BME280;5307;42.548;22.968;2024-03-06T02:19:39;93631.44;;;2.52;100.00
10518;BME280;5307;42.548;22.968;2024-03-06T02:22:08;93627.69;;;2.46;100.00
10518;BME280;5307;42.548;22.968;2024-03-06T02:24:35;93619.91;;;2.55;100.00
10518;BME280;5307;42.548;22.968;2024-03-06T02:27:02;93628.19;;;2.33;100.00
10518;BME280;5307;42.548;22.968;2024-03-06T02:29:31;93628.63;;;2.28;100.00
10518;BME280;5307;42.548;22.968;2024-03-06T02:31:58;93623.25;;;2.25;100.00
10518;BME280;5307;42.548;22.968;2024-03-06T02:34:25;93621.72;;;2.24;100.00
10518;BME280;5307;42.548;22.968;2024-03-06T02:36:51;93621.34;;;2.25;100.00
10518;BME280;5307;42.548;22.968;2024-03-06T02:39:19;93626.34;;;2.27;100.00
10518;BME280;5307;42.548;22.968;2024-03-06T02:41:46;93630.88;;;2.33;100.00
10518;BME280;5307;42.548;22.968;2024-03-06T02:44:14;93636.13;;;2.48;100.00
10518;BME280;5307;42.548;22.968;2024-03-06T02:46:46;93636.06;;;2.51;100.00
10518;BME280;5307;42.548;22.968;2024-03-06T02:49:13;93634.84;;;2.59;100.00
10518;BME280;5307;42.548;22.968;2024-03-06T02:51:40;93641.47;;;2.55;100.00
10518;BME280;5307;42.548;22.968;2024-03-06T02:54:07;93644.75;;;2.70;100.00
10518;BME280;5307;42.548;22.968;2024-03-06T02:56:35;93637.59;;;2.56;100.00
10518;BME280;5307;42.548;22.968;2024-03-06T02:59:02;93642.22;;;2.52;100.00
10518;BME280;5307;42.548;22.968;2024-03-06T03:01:29;93642.41;;;2.34;100.00
10518;BME280;5307;42.548;22.968;2024-03-06T03:03:56;93645.06;;;2.41;100.00
10518;BME280;5307;42.548;22.968;2024-03-06T03:06:23;93647.75;;;2.41;100.00
10518;BME280;5307;42.548;22.968;2024-03-06T03:08:50;93642.78;;;2.36;100.00
10518;BME280;5307;42.548;22.968;2024-03-06T03:11:17;93644.44;;;2.23;100.00
10518;BME280;5307;42.548;22.968;2024-03-06T03:13:45;93650.25;;;2.18;100.00
10518;BME280;5307;42.548;22.968;2024-03-06T03:16:15;93647.50;;;2.25;100.00
10518;BME280;5307;42.548;22.968;2024-03-06T03:18:43;93651.06;;;2.15;100.00
10518;BME280;5307;42.548;22.968;2024-03-06T03:21:10;93656.09;;;2.09;100.00
10518;BME280;5307;42.548;22.968;2024-03-06T03:23:37;93658.09;;;2.01;100.00
10518;BME280;5307;42.548;22.968;2024-03-06T03:26:05;93655.00;;;2.03;100.00
10518;BME280;5307;42.548;22.968;2024-03-06T03:28:31;93656.53;;;2.04;100.00
10518;BME280;5307;42.548;22.968;2024-03-06T03:31:00;93664.66;;;1.97;100.00
10518;BME280;5307;42.548;22.968;2024-03-06T03:33:27;93656.69;;;1.86;100.00
10518;BME280;5307;42.548;22.968;2024-03-06T03:35:53;93653.47;;;2.02;100.00
10518;BME280;5307;42.548;22.968;2024-03-06T03:38:20;93661.97;;;2.00;100.00
10518;BME280;5307;42.548;22.968;2024-03-06T03:40:47;93662.41;;;1.92;100.00
10518;BME280;5307;42.548;22.968;2024-03-06T03:43:13;93662.66;;;2.08;100.00
10518;BME280;5307;42.548;22.968;2024-03-06T03:45:41;93662.16;;;1.68;100.00
10518;BME280;5307;42.548;22.968;2024-03-06T03:48:09;93670.25;;;1.68;100.00
10518;BME280;5307;42.548;22.968;2024-03-06T03:50:36;93660.91;;;1.87;100.00
10518;BME280;5307;42.548;22.968;2024-03-06T03:53:03;93672.81;;;1.90;100.00
10518;BME280;5307;42.548;22.968;2024-03-06T03:55:30;93677.47;;;1.82;100.00
10518;BME280;5307;42.548;22.968;2024-03-06T03:57:56;93685.94;;;1.81;100.00
10518;BME280;5307;42.548;22.968;2024-03-06T04:00:23;93679.63;;;2.05;100.00
10518;BME280;5307;42.548;22.968;2024-03-06T04:02:50;93686.69;;;1.85;100.00
10518;BME280;5307;42.548;22.968;2024-03-06T04:05:18;93686.69;;;1.81;100.00
10518;BME280;5307;42.548;22.968;2024-03-06T04:07:45;93691.28;;;1.88;100.00
10518;BME280;5307;42.548;22.968;2024-03-06T04:10:12;93698.13;;;1.96;100.00
10518;BME280;5307;42.548;22.968;2024-03-06T04:12:38;93694.00;;;1.84;100.00
10518;BME280;5307;42.548;22.968;2024-03-06T04:15:06;93699.31;;;1.95;100.00
10518;BME280;5307;42.548;22.968;2024-03-06T04:17:34;93702.06;;;1.88;100.00
10518;BME280;5307;42.548;22.968;2024-03-06T04:20:01;93704.94;;;2.11;100.00
10518;BME280;5307;42.548;22.968;2024-03-06T04:22:29;93706.28;;;1.89;100.00
10518;BME280;5307;42.548;22.968;2024-03-06T04:24:56;93703.19;;;1.90;100.00
10518;BME280;5307;42.548;22.968;2024-03-06T04:27:24;93702.00;;;1.95;100.00
10518;BME280;5307;42.548;22.968;2024-03-06T04:29:51;93704.41;;;1.78;100.00
10518;BME280;5307;42.548;22.968;2024-03-06T04:32:18;93709.09;;;1.71;100.00
10518;BME280;5307;42.548;22.968;2024-03-06T04:34:45;93706.72;;;1.84;100.00
10518;BME280;5307;42.548;22.968;2024-03-06T04:37:13;93711.69;;;1.82;100.00
10518;BME280;5307;42.548;22.968;2024-03-06T04:39:41;93709.34;;;1.91;100.00
10518;BME280;5307;42.548;22.968;2024-03-06T04:42:07;93711.19;;;2.01;100.00
10518;BME280;5307;42.548;22.968;2024-03-06T04:44:34;93715.81;;;1.97;100.00
10518;BME280;5307;42.548;22.968;2024-03-06T04:47:02;93715.09;;;1.93;100.00
10518;BME280;5307;42.548;22.968;2024-03-06T04:49:32;93718.97;;;1.88;100.00
10518;BME280;5307;42.548;22.968;2024-03-06T04:52:00;93720.88;;;1.91;100.00
10518;BME280;5307;42.548;22.968;2024-03-06T04:54:28;93713.19;;;1.90;100.00
10518;BME280;5307;42.548;22.968;2024-03-06T04:56:56;93715.88;;;1.90;100.00
10518;BME280;5307;42.548;22.968;2024-03-06T04:59:23;93727.44;;;1.87;100.00
10518;BME280;5307;42.548;22.968;2024-03-06T05:01:49;93718.59;;;1.86;100.00
10518;BME280;5307;42.548;22.968;2024-03-06T05:04:17;93731.28;;;1.89;100.00
10518;BME280;5307;42.548;22.968;2024-03-06T05:06:44;93727.75;;;1.99;100.00
10518;BME280;5307;42.548;22.968;2024-03-06T05:09:11;93730.44;;;1.96;100.00
10518;BME280;5307;42.548;22.968;2024-03-06T05:11:38;93731.22;;;2.00;100.00
10518;BME280;5307;42.548;22.968;2024-03-06T05:14:06;93726.59;;;1.97;100.00
10518;BME280;5307;42.548;22.968;2024-03-06T05:16:33;93734.66;;;2.00;100.00
10518;BME280;5307;42.548;22.968;2024-03-06T05:19:00;93731.88;;;2.11;100.00
10518;BME280;5307;42.548;22.968;2024-03-06T05:21:27;93736.16;;;2.05;100.00
10518;BME280;5307;42.548;22.968;2024-03-06T05:23:53;93744.25;;;2.05;100.00
10518;BME280;5307;42.548;22.968;2024-03-06T05:26:20;93744.97;;;2.09;100.00
10518;BME280;5307;42.548;22.968;2024-03-06T05:28:47;93744.88;;;2.27;100.00
10518;BME280;5307;42.548;22.968;2024-03-06T05:31:17;93742.50;;;2.32;100.00
10518;BME280;5307;42.548;22.968;2024-03-06T05:33:47;93739.44;;;2.30;100.00
10518;BME280;5307;42.548;22.968;2024-03-06T05:36:15;93755.97;;;2.32;100.00
10518;BME280;5307;42.548;22.968;2024-03-06T05:38:43;93758.00;;;2.18;100.00
10518;BME280;5307;42.548;22.968;2024-03-06T05:41:09;93758.78;;;2.18;100.00
10518;BME280;5307;42.548;22.968;2024-03-06T05:43:36;93766.31;;;2.37;100.00
10518;BME280;5307;42.548;22.968;2024-03-06T05:46:03;93764.03;;;2.36;100.00
10518;BME280;5307;42.548;22.968;2024-03-06T05:48:31;93766.34;;;2.34;100.00
10518;BME280;5307;42.548;22.968;2024-03-06T05:50:59;93771.78;;;2.30;100.00
10518;BME280;5307;42.548;22.968;2024-03-06T05:53:26;93771.66;;;2.45;100.00
10518;BME280;5307;42.548;22.968;2024-03-06T05:55:52;93773.66;;;2.37;100.00
10518;BME280;5307;42.548;22.968;2024-03-06T05:58:20;93766.31;;;2.41;100.00
10518;BME280;5307;42.548;22.968;2024-03-06T06:00:47;93768.66;;;2.35;100.00
10518;BME280;5307;42.548;22.968;2024-03-06T06:03:14;93766.03;;;2.28;100.00
10518;BME280;5307;42.548;22.968;2024-03-06T06:05:42;93769.78;;;2.42;100.00
10518;BME280;5307;42.548;22.968;2024-03-06T06:08:09;93777.50;;;2.36;100.00
10518;BME280;5307;42.548;22.968;2024-03-06T06:10:36;93780.50;;;2.49;100.00
10518;BME280;5307;42.548;22.968;2024-03-06T06:13:04;93793.19;;;2.48;100.00
10518;BME280;5307;42.548;22.968;2024-03-06T06:15:31;93788.94;;;2.51;100.00
10518;BME280;5307;42.548;22.968;2024-03-06T06:17:59;93782.41;;;2.48;100.00
10518;BME280;5307;42.548;22.968;2024-03-06T06:20:25;93782.66;;;2.68;100.00
10518;BME280;5307;42.548;22.968;2024-03-06T06:22:53;93776.41;;;3.16;100.00
10518;BME280;5307;42.548;22.968;2024-03-06T06:25:20;93779.16;;;3.46;100.00
10518;BME280;5307;42.548;22.968;2024-03-06T06:27:47;93774.13;;;3.79;100.00
10518;BME280;5307;42.548;22.968;2024-03-06T06:30:15;93765.50;;;3.91;100.00
10518;BME280;5307;42.548;22.968;2024-03-06T06:32:42;93766.78;;;4.37;100.00
10518;BME280;5307;42.548;22.968;2024-03-06T06:35:09;93754.84;;;4.34;99.66
10518;BME280;5307;42.548;22.968;2024-03-06T06:37:37;93752.53;;;4.33;99.63
10518;BME280;5307;42.548;22.968;2024-03-06T06:40:07;93757.03;;;4.43;98.04
10518;BME280;5307;42.548;22.968;2024-03-06T06:42:34;93765.63;;;4.85;97.49
10518;BME280;5307;42.548;22.968;2024-03-06T06:45:01;93769.28;;;4.98;95.85
10518;BME280;5307;42.548;22.968;2024-03-06T06:47:28;93756.25;;;4.89;93.68
10518;BME280;5307;42.548;22.968;2024-03-06T06:49:55;93755.88;;;4.67;92.31
10518;BME280;5307;42.548;22.968;2024-03-06T06:52:23;93754.56;;;5.19;91.04
10518;BME280;5307;42.548;22.968;2024-03-06T06:54:52;93746.28;;;4.86;89.66
10518;BME280;5307;42.548;22.968;2024-03-06T06:57:21;93754.38;;;5.10;89.98
10518;BME280;5307;42.548;22.968;2024-03-06T06:59:47;93755.72;;;5.21;89.08
10518;BME280;5307;42.548;22.968;2024-03-06T07:02:14;93758.91;;;5.56;88.62
10518;BME280;5307;42.548;22.968;2024-03-06T07:04:41;93753.56;;;5.72;87.49
10518;BME280;5307;42.548;22.968;2024-03-06T07:07:08;93756.75;;;5.67;86.26
10518;BME280;5307;42.548;22.968;2024-03-06T07:09:34;93768.34;;;5.87;86.13
10518;BME280;5307;42.548;22.968;2024-03-06T07:12:01;93763.50;;;5.79;86.03
10518;BME280;5307;42.548;22.968;2024-03-06T07:14:29;93766.88;;;5.83;85.57
10518;BME280;5307;42.548;22.968;2024-03-06T07:16:56;93772.50;;;6.12;85.30
10518;BME280;5307;42.548;22.968;2024-03-06T07:19:23;93771.09;;;6.23;83.84
10518;BME280;5307;42.548;22.968;2024-03-06T07:21:50;93762.78;;;5.75;84.42
10518;BME280;5307;42.548;22.968;2024-03-06T07:24:17;93760.06;;;5.75;85.24
10518;BME280;5307;42.548;22.968;2024-03-06T07:26:44;93763.16;;;6.49;85.77
10518;BME280;5307;42.548;22.968;2024-03-06T07:29:11;93768.97;;;6.31;86.10
10518;BME280;5307;42.548;22.968;2024-03-06T07:31:42;93771.75;;;6.11;87.08
10518;BME280;5307;42.548;22.968;2024-03-06T07:34:09;93766.41;;;7.22;85.84
10518;BME280;5307;42.548;22.968;2024-03-06T07:36:36;93767.47;;;6.95;85.61
10518;BME280;5307;42.548;22.968;2024-03-06T07:39:03;93753.59;;;6.77;85.83
10518;BME280;5307;42.548;22.968;2024-03-06T07:41:31;93765.63;;;6.76;86.01
10518;BME280;5307;42.548;22.968;2024-03-06T07:43:58;93758.50;;;6.82;85.92
10518;BME280;5307;42.548;22.968;2024-03-06T07:46:25;93758.56;;;7.40;86.39
10518;BME280;5307;42.548;22.968;2024-03-06T07:48:53;93748.66;;;8.42;84.41
10518;BME280;5307;42.548;22.968;2024-03-06T07:51:20;93736.59;;;8.43;82.15
10518;BME280;5307;42.548;22.968;2024-03-06T07:53:47;93749.13;;;7.86;81.83
10518;BME280;5307;42.548;22.968;2024-03-06T07:56:15;93751.56;;;7.26;82.85
10518;BME280;5307;42.548;22.968;2024-03-06T07:58:42;93749.91;;;7.58;83.67
10518;BME280;5307;42.548;22.968;2024-03-06T08:01:09;93757.59;;;7.76;83.24
10518;BME280;5307;42.548;22.968;2024-03-06T08:03:38;93749.75;;;7.65;82.80
10518;BME280;5307;42.548;22.968;2024-03-06T08:06:07;93753.38;;;7.87;81.50
10518;BME280;5307;42.548;22.968;2024-03-06T08:08:33;93756.22;;;8.98;81.63
10518;BME280;5307;42.548;22.968;2024-03-06T08:11:00;93747.00;;;9.96;78.39
10518;BME280;5307;42.548;22.968;2024-03-06T08:13:27;93744.22;;;8.36;77.26
10518;BME280;5307;42.548;22.968;2024-03-06T08:15:54;93752.88;;;9.63;75.85
10518;BME280;5307;42.548;22.968;2024-03-06T08:18:21;93760.09;;;9.22;75.52
10518;BME280;5307;42.548;22.968;2024-03-06T08:20:48;93759.63;;;9.37;75.71
10518;BME280;5307;42.548;22.968;2024-03-06T08:23:16;93754.69;;;10.32;73.76
10518;BME280;5307;42.548;22.968;2024-03-06T08:25:42;93752.94;;;9.72;72.94
10518;BME280;5307;42.548;22.968;2024-03-06T08:28:09;93755.59;;;10.29;72.46
10518;BME280;5307;42.548;22.968;2024-03-06T08:30:36;93754.81;;;10.68;72.12
10518;BME280;5307;42.548;22.968;2024-03-06T08:33:03;93743.59;;;10.66;71.62
10518;BME280;5307;42.548;22.968;2024-03-06T08:35:30;93748.97;;;10.97;70.06
10518;BME280;5307;42.548;22.968;2024-03-06T08:37:57;93744.69;;;11.82;68.77
10518;BME280;5307;42.548;22.968;2024-03-06T08:40:25;93748.38;;;10.93;68.51
10518;BME280;5307;42.548;22.968;2024-03-06T08:42:53;93745.22;;;10.55;69.32
10518;BME280;5307;42.548;22.968;2024-03-06T08:45:20;93748.38;;;10.93;70.17
10518;BME280;5307;42.548;22.968;2024-03-06T08:47:48;93749.06;;;10.35;69.29
10518;BME280;5307;42.548;22.968;2024-03-06T08:50:15;93744.94;;;11.48;66.99
10518;BME280;5307;42.548;22.968;2024-03-06T08:52:42;93745.56;;;11.79;64.71
10518;BME280;5307;42.548;22.968;2024-03-06T08:55:09;93744.06;;;12.48;62.26
10518;BME280;5307;42.548;22.968;2024-03-06T08:57:38;93743.16;;;13.08;60.87
10518;BME280;5307;42.548;22.968;2024-03-06T09:00:06;93742.22;;;11.48;62.33
10518;BME280;5307;42.548;22.968;2024-03-06T09:02:36;93734.41;;;12.29;61.64
10518;BME280;5307;42.548;22.968;2024-03-06T09:05:04;93745.56;;;12.49;62.49
10518;BME280;5307;42.548;22.968;2024-03-06T09:07:31;93739.97;;;12.43;61.34
10518;BME280;5307;42.548;22.968;2024-03-06T09:10:03;93725.88;;;12.69;61.17
10518;BME280;5307;42.548;22.968;2024-03-06T09:12:31;93735.56;;;12.79;61.01
10518;BME280;5307;42.548;22.968;2024-03-06T09:14:59;93731.00;;;13.57;59.82
10518;BME280;5307;42.548;22.968;2024-03-06T09:17:26;93724.81;;;13.47;58.40
10518;BME280;5307;42.548;22.968;2024-03-06T09:19:53;93722.66;;;13.51;58.78
10518;BME280;5307;42.548;22.968;2024-03-06T09:22:20;93723.63;;;13.24;59.31
10518;BME280;5307;42.548;22.968;2024-03-06T09:24:46;93722.41;;;12.92;59.56
10518;BME280;5307;42.548;22.968;2024-03-06T09:27:17;93712.47;;;14.84;57.95
10518;BME280;5307;42.548;22.968;2024-03-06T09:29:44;93713.06;;;13.85;57.50
10518;BME280;5307;42.548;22.968;2024-03-06T09:32:12;93705.00;;;13.28;58.63
10518;BME280;5307;42.548;22.968;2024-03-06T09:34:41;93711.31;;;13.58;58.15
10518;BME280;5307;42.548;22.968;2024-03-06T09:37:08;93708.25;;;14.39;57.37
10518;BME280;5307;42.548;22.968;2024-03-06T09:39:36;93704.75;;;14.24;56.60
10518;BME280;5307;42.548;22.968;2024-03-06T09:42:03;93709.91;;;13.24;55.84
10518;BME280;5307;42.548;22.968;2024-03-06T09:44:30;93702.84;;;14.15;55.15
10518;BME280;5307;42.548;22.968;2024-03-06T09:46:59;93703.03;;;14.56;54.90
10518;BME280;5307;42.548;22.968;2024-03-06T09:49:27;93697.81;;;13.70;54.67
10518;BME280;5307;42.548;22.968;2024-03-06T09:51:55;93698.50;;;14.23;55.21
10518;BME280;5307;42.548;22.968;2024-03-06T09:54:25;93684.63;;;14.62;55.92
10518;BME280;5307;42.548;22.968;2024-03-06T09:56:52;93692.66;;;14.80;54.72
10518;BME280;5307;42.548;22.968;2024-03-06T09:59:21;93694.72;;;15.06;54.32
10518;BME280;5307;42.548;22.968;2024-03-06T10:01:50;93689.56;;;14.43;53.84
10518;BME280;5307;42.548;22.968;2024-03-06T10:04:20;93679.28;;;13.94;54.22
10518;BME280;5307;42.548;22.968;2024-03-06T10:06:49;93677.13;;;14.63;53.84
10518;BME280;5307;42.548;22.968;2024-03-06T10:09:19;93684.66;;;14.47;52.92
10518;BME280;5307;42.548;22.968;2024-03-06T10:11:45;93676.16;;;14.01;54.12
10518;BME280;5307;42.548;22.968;2024-03-06T10:14:12;93680.41;;;14.46;51.50
10518;BME280;5307;42.548;22.968;2024-03-06T10:16:51;93669.72;;;15.24;50.68
10518;BME280;5307;42.548;22.968;2024-03-06T10:19:19;93663.59;;;15.14;51.87
10518;BME280;5307;42.548;22.968;2024-03-06T10:21:47;93675.66;;;14.47;50.02
10518;BME280;5307;42.548;22.968;2024-03-06T10:24:19;93670.72;;;14.86;51.16
10518;BME280;5307;42.548;22.968;2024-03-06T10:26:49;93664.56;;;15.11;51.29
10518;BME280;5307;42.548;22.968;2024-03-06T10:29:16;93669.31;;;14.55;48.95
10518;BME280;5307;42.548;22.968;2024-03-06T10:31:54;93661.28;;;14.72;48.89
10518;BME280;5307;42.548;22.968;2024-03-06T10:34:22;93657.63;;;15.36;48.47
10518;BME280;5307;42.548;22.968;2024-03-06T10:36:54;93649.09;;;15.34;49.62
10518;BME280;5307;42.548;22.968;2024-03-06T10:39:22;93655.78;;;15.07;48.37
10518;BME280;5307;42.548;22.968;2024-03-06T10:41:52;93647.06;;;15.55;49.47
10518;BME280;5307;42.548;22.968;2024-03-06T10:44:21;93648.44;;;15.45;49.74
10518;BME280;5307;42.548;22.968;2024-03-06T10:46:54;93632.56;;;16.07;49.37
10518;BME280;5307;42.548;22.968;2024-03-06T10:49:23;93629.75;;;15.29;48.48
10518;BME280;5307;42.548;22.968;2024-03-06T10:51:51;93632.44;;;15.64;48.02
10518;BME280;5307;42.548;22.968;2024-03-06T10:54:22;93632.19;;;15.47;46.71
10518;BME280;5307;42.548;22.968;2024-03-06T10:56:50;93619.84;;;15.37;48.02
10518;BME280;5307;42.548;22.968;2024-03-06T10:59:20;93613.13;;;15.90;46.96
10518;BME280;5307;42.548;22.968;2024-03-06T11:01:48;93617.59;;;15.35;45.78
10518;BME280;5307;42.548;22.968;2024-03-06T11:04:16;93612.41;;;15.63;47.49
10518;BME280;5307;42.548;22.968;2024-03-06T11:06:43;93619.19;;;15.48;47.12
10518;BME280;5307;42.548;22.968;2024-03-06T11:09:10;93600.81;;;15.85;44.34
10518;BME280;5307;42.548;22.968;2024-03-06T11:11:49;93599.47;;;15.75;44.86
10518;BME280;5307;42.548;22.968;2024-03-06T11:14:16;93599.00;;;15.30;44.67
10518;BME280;5307;42.548;22.968;2024-03-06T11:16:57;93593.28;;;15.08;44.45
10518;BME280;5307;42.548;22.968;2024-03-06T11:19:25;93590.75;;;15.77;45.18
10518;BME280;5307;42.548;22.968;2024-03-06T11:21:52;93596.66;;;15.95;45.51
10518;BME280;5307;42.548;22.968;2024-03-06T11:24:20;93589.19;;;15.70;45.57
10518;BME280;5307;42.548;22.968;2024-03-06T11:26:49;93582.84;;;15.38;46.10
10518;BME280;5307;42.548;22.968;2024-03-06T11:29:17;93589.44;;;15.72;45.35
10518;BME280;5307;42.548;22.968;2024-03-06T11:32:01;93582.13;;;15.63;46.28
10518;BME280;5307;42.548;22.968;2024-03-06T11:34:28;93585.69;;;15.03;45.48
10518;BME280;5307;42.548;22.968;2024-03-06T11:36:57;93585.09;;;15.39;45.21
10518;BME280;5307;42.548;22.968;2024-03-06T11:39:24;93580.31;;;15.86;44.94
10518;BME280;5307;42.548;22.968;2024-03-06T11:41:55;93582.00;;;15.78;46.33
10518;BME280;5307;42.548;22.968;2024-03-06T11:44:22;93579.16;;;15.47;45.99
10518;BME280;5307;42.548;22.968;2024-03-06T11:46:57;93580.69;;;15.01;46.53
10518;BME280;5307;42.548;22.968;2024-03-06T11:49:25;93572.38;;;14.96;46.72
10518;BME280;5307;42.548;22.968;2024-03-06T11:51:55;93568.38;;;14.76;47.70
10518;BME280;5307;42.548;22.968;2024-03-06T11:54:22;93562.19;;;15.02;46.57
10518;BME280;5307;42.548;22.968;2024-03-06T11:56:53;93564.69;;;14.79;46.44
10518;BME280;5307;42.548;22.968;2024-03-06T11:59:22;93568.31;;;14.50;47.29
10518;BME280;5307;42.548;22.968;2024-03-06T12:01:50;93560.75;;;14.45;48.64
10518;BME280;5307;42.548;22.968;2024-03-06T12:04:18;93560.97;;;14.27;48.37
10518;BME280;5307;42.548;22.968;2024-03-06T12:06:45;93557.81;;;13.99;49.09
10518;BME280;5307;42.548;22.968;2024-03-06T12:09:12;93555.94;;;13.90;48.30
10518;BME280;5307;42.548;22.968;2024-03-06T12:11:38;93567.47;;;14.09;49.46
10518;BME280;5307;42.548;22.968;2024-03-06T12:14:06;93561.78;;;13.98;49.95
10518;BME280;5307;42.548;22.968;2024-03-06T12:16:36;93553.47;;;13.78;49.05
10518;BME280;5307;42.548;22.968;2024-03-06T12:19:03;93557.31;;;13.65;48.43
10518;BME280;5307;42.548;22.968;2024-03-06T12:21:31;93548.75;;;13.78;48.19
10518;BME280;5307;42.548;22.968;2024-03-06T12:24:04;93556.63;;;14.20;48.75
10518;BME280;5307;42.548;22.968;2024-03-06T12:26:31;93550.91;;;14.39;48.47
10518;BME280;5307;42.548;22.968;2024-03-06T12:29:05;93550.09;;;13.83;48.07
10518;BME280;5307;42.548;22.968;2024-03-06T12:31:33;93548.06;;;14.33;48.63
10518;BME280;5307;42.548;22.968;2024-03-06T12:34:01;93539.47;;;13.76;47.91
10518;BME280;5307;42.548;22.968;2024-03-06T12:36:29;93550.44;;;13.76;49.03
10518;BME280;5307;42.548;22.968;2024-03-06T12:38:56;93546.44;;;13.91;49.80
10518;BME280;5307;42.548;22.968;2024-03-06T12:41:25;93552.50;;;14.10;49.88
10518;BME280;5307;42.548;22.968;2024-03-06T12:43:53;93553.03;;;14.14;50.17
10518;BME280;5307;42.548;22.968;2024-03-06T12:46:21;93550.13;;;14.03;49.98
10518;BME280;5307;42.548;22.968;2024-03-06T12:48:48;93545.31;;;13.98;49.64
10518;BME280;5307;42.548;22.968;2024-03-06T12:51:16;93550.25;;;13.94;50.52
10518;BME280;5307;42.548;22.968;2024-03-06T12:53:43;93541.66;;;13.86;49.77
10518;BME280;5307;42.548;22.968;2024-03-06T12:56:09;93548.75;;;13.78;50.23
10518;BME280;5307;42.548;22.968;2024-03-06T12:58:36;93544.41;;;13.72;50.40
10518;BME280;5307;42.548;22.968;2024-03-06T13:01:03;93548.47;;;13.47;51.39
10518;BME280;5307;42.548;22.968;2024-03-06T13:03:31;93546.47;;;13.18;51.96
10518;BME280;5307;42.548;22.968;2024-03-06T13:05:57;93561.06;;;13.24;52.64